Time;durP1;ratioP1;P1;durP2;ratioP2;P2;SDS_P1;SDS_P2;PMS_P1;PMS_P2;Temp;Humidity;BMP_temperature;BMP_pressure;BME280_temperature;BME280_humidity;BME280_pressure;Samples;Min_cycle;Max_cycle;Signal;HPM_P1;HPM_P2
2022/05/10 00:01:49;;;;;;;;;;;13.10;99.90;;;;;;5026301;28;20346;-76
2022/05/10 00:04:15;;;;;;;;;;;13.00;99.90;;;;;;5043572;28;19976;-76
2022/05/10 00:06:41;;;;;;;;;;;13.00;99.90;;;;;;5045339;28;20406;-77
2022/05/10 00:09:07;;;;;;;;;;;13.00;99.90;;;;;;5031069;28;20378;-77
2022/05/10 00:11:34;;;;;;;;;;;12.90;99.90;;;;;;5048659;28;19971;-76
2022/05/10 00:14:00;;;;;;;;;;;12.90;99.90;;;;;;5043328;28;19940;-76
2022/05/10 00:16:26;;;;;;;;;;;12.80;99.90;;;;;;5064066;28;20471;-77
2022/05/10 00:18:52;;;;;;;;;;;12.80;99.90;;;;;;5047037;28;19920;-76
2022/05/10 00:21:19;;;;;;;;;;;12.70;99.90;;;;;;5044714;28;19928;-76
2022/05/10 00:23:45;;;;;;;;;;;12.70;99.90;;;;;;5046727;28;19925;-77
2022/05/10 00:26:11;;;;;;;;;;;12.60;99.90;;;;;;5048021;28;19924;-76
2022/05/10 00:28:37;;;;;;;;;;;12.60;99.90;;;;;;5046997;28;19921;-76
2022/05/10 00:31:04;;;;;;;;;;;12.60;99.90;;;;;;5016492;28;20403;-76
2022/05/10 00:33:30;;;;;;;;;;;12.60;99.90;;;;;;5015408;28;19967;-76
2022/05/10 00:35:56;;;;;;;;;;;12.60;99.90;;;;;;5047265;28;20397;-76
2022/05/10 00:38:25;;;;;;;;;;;12.60;99.90;;;;;;5031763;28;19921;-76
2022/05/10 00:40:51;;;;;;;;;;;12.50;99.90;;;;;;5032405;28;19947;-76
2022/05/10 00:43:20;;;;;;;;;;;12.50;99.90;;;;;;5016261;28;19925;-76
2022/05/10 00:45:50;;;;;;;;;;;12.50;99.90;;;;;;5048038;28;19924;-77
2022/05/10 00:48:18;;;;;;;;;;;12.50;99.90;;;;;;5031520;28;20382;-76
2022/05/10 00:50:46;;;;;;;;;;;12.50;99.90;;;;;;5032565;28;19921;-76
2022/05/10 00:53:14;;;;;;;;;;;12.50;99.90;;;;;;5031755;28;20011;-76
2022/05/10 00:55:42;;;;;;;;;;;12.40;99.90;;;;;;5029623;28;20031;-77
2022/05/10 00:58:10;;;;;;;;;;;12.40;99.90;;;;;;5047559;28;19966;-76
2022/05/10 01:00:36;;;;;;;;;;;12.40;99.90;;;;;;5030739;28;20554;-76
2022/05/10 01:03:09;;;;;;;;;;;12.40;99.90;;;;;;5024819;28;20055;-76
2022/05/10 01:05:36;;;;;;;;;;;12.30;99.90;;;;;;5042006;28;19952;-77
2022/05/10 01:08:05;;;;;;;;;;;12.30;99.90;;;;;;5047688;28;20364;-77
2022/05/10 01:10:35;;;;;;;;;;;12.20;99.90;;;;;;5027474;28;20034;-76
2022/05/10 01:13:08;;;;;;;;;;;12.20;99.90;;;;;;5032120;28;19986;-76
2022/05/10 01:15:34;;;;;;;;;;;12.20;99.90;;;;;;5023578;28;19975;-77
2022/05/10 01:17:59;;;;;;;;;;;12.20;99.90;;;;;;5047303;28;19992;-77
2022/05/10 01:20:28;;;;;;;;;;;12.20;99.90;;;;;;5047062;28;20008;-77
2022/05/10 01:22:58;;;;;;;;;;;12.20;99.90;;;;;;5047559;28;19948;-76
2022/05/10 01:25:31;;;;;;;;;;;12.20;99.90;;;;;;5041289;28;20405;-78
2022/05/10 01:28:17;;;;;;;;;;;12.20;99.90;;;;;;5030775;28;19928;-76
2022/05/10 01:30:42;;;;;;;;;;;12.20;99.90;;;;;;5047576;28;19924;-76
2022/05/10 01:33:30;;;;;;;;;;;12.20;99.90;;;;;;5015490;28;19928;-76
2022/05/10 01:36:01;;;;;;;;;;;12.20;99.90;;;;;;5031138;28;19925;-77
2022/05/10 01:38:30;;;;;;;;;;;12.10;99.90;;;;;;5031136;28;20579;-76
2022/05/10 01:41:00;;;;;;;;;;;12.10;99.90;;;;;;5030945;28;19968;-77
2022/05/10 01:43:32;;;;;;;;;;;12.10;99.90;;;;;;5030998;28;19928;-76
2022/05/10 01:46:01;;;;;;;;;;;12.10;99.90;;;;;;5028000;28;19924;-77
2022/05/10 01:48:32;;;;;;;;;;;12.00;99.90;;;;;;5031133;28;19921;-77
2022/05/10 01:51:01;;;;;;;;;;;12.00;99.90;;;;;;5031214;28;19920;-76
2022/05/10 01:53:30;;;;;;;;;;;12.10;99.90;;;;;;5046404;28;19967;-77
2022/05/10 01:56:01;;;;;;;;;;;12.00;99.90;;;;;;5045682;28;19975;-77
2022/05/10 01:58:29;;;;;;;;;;;12.00;99.90;;;;;;5012683;28;20015;-77
2022/05/10 02:00:57;;;;;;;;;;;12.10;99.90;;;;;;5029932;28;20402;-77
2022/05/10 02:03:25;;;;;;;;;;;12.20;99.90;;;;;;5014995;28;19999;-77
2022/05/10 02:05:53;;;;;;;;;;;12.20;99.90;;;;;;5045321;28;20306;-77
2022/05/10 02:08:24;;;;;;;;;;;12.20;99.90;;;;;;5030047;28;19964;-77
2022/05/10 02:10:51;;;;;;;;;;;12.30;99.90;;;;;;5043781;28;20058;-76
2022/05/10 02:13:21;;;;;;;;;;;12.30;99.90;;;;;;5015394;28;20393;-76
2022/05/10 02:15:50;;;;;;;;;;;12.30;99.90;;;;;;5037927;28;19931;-77
2022/05/10 02:18:20;;;;;;;;;;;12.30;99.90;;;;;;5044716;28;20460;-77
2022/05/10 02:20:49;;;;;;;;;;;12.40;99.90;;;;;;5030061;28;19978;-77
2022/05/10 02:23:18;;;;;;;;;;;12.40;99.90;;;;;;5042832;28;19921;-76
2022/05/10 02:25:46;;;;;;;;;;;12.40;99.90;;;;;;5045363;28;19983;-76
2022/05/10 02:28:15;;;;;;;;;;;12.40;99.90;;;;;;5044674;28;20334;-77
2022/05/10 02:30:45;;;;;;;;;;;12.40;99.90;;;;;;5030429;28;19921;-78
2022/05/10 02:33:13;;;;;;;;;;;12.50;99.90;;;;;;5043703;28;20437;-77
2022/05/10 02:35:42;;;;;;;;;;;12.50;99.90;;;;;;5046607;28;20018;-77
2022/05/10 02:38:08;;;;;;;;;;;12.50;99.90;;;;;;5045832;28;19924;-77
2022/05/10 02:40:34;;;;;;;;;;;12.60;99.90;;;;;;5044868;28;19921;-77
2022/05/10 02:43:00;;;;;;;;;;;12.60;99.90;;;;;;5030440;28;19990;-77
2022/05/10 02:45:26;;;;;;;;;;;12.60;99.90;;;;;;5029817;28;20394;-76
2022/05/10 02:47:51;;;;;;;;;;;12.60;99.90;;;;;;5013585;28;20302;-78
2022/05/10 02:50:23;;;;;;;;;;;12.60;99.90;;;;;;5030611;28;19927;-77
2022/05/10 02:52:48;;;;;;;;;;;12.70;99.90;;;;;;5044701;28;19987;-77
2022/05/10 02:55:16;;;;;;;;;;;12.70;99.90;;;;;;5026963;28;19925;-76
2022/05/10 02:57:45;;;;;;;;;;;12.70;99.90;;;;;;5043419;28;20027;-77
2022/05/10 03:00:11;;;;;;;;;;;12.70;99.90;;;;;;5001643;28;20646;-76
2022/05/10 03:02:39;;;;;;;;;;;12.70;99.90;;;;;;5042384;28;19955;-78
2022/05/10 03:05:07;;;;;;;;;;;12.80;99.90;;;;;;5042183;28;19937;-77
2022/05/10 03:07:33;;;;;;;;;;;12.80;99.90;;;;;;5041482;28;20335;-77
2022/05/10 03:09:59;;;;;;;;;;;12.80;99.90;;;;;;5024338;28;19928;-78
2022/05/10 03:12:25;;;;;;;;;;;12.90;99.90;;;;;;5042388;28;19925;-77
2022/05/10 03:14:56;;;;;;;;;;;12.90;99.90;;;;;;5026633;28;20446;-77
2022/05/10 03:17:22;;;;;;;;;;;13.00;99.90;;;;;;5038417;28;20027;-78
2022/05/10 03:19:48;;;;;;;;;;;13.00;99.90;;;;;;5027851;28;20414;-76
2022/05/10 03:22:14;;;;;;;;;;;13.00;99.90;;;;;;5044145;28;19920;-77
2022/05/10 03:24:40;;;;;;;;;;;13.10;99.90;;;;;;5029942;28;19921;-77
2022/05/10 03:27:07;;;;;;;;;;;13.10;99.90;;;;;;5043732;28;20078;-77
2022/05/10 03:29:33;;;;;;;;;;;13.10;99.90;;;;;;5044471;28;19972;-77
2022/05/10 03:31:59;;;;;;;;;;;13.20;99.90;;;;;;5037307;28;20370;-76
2022/05/10 03:37:09;;;;;;;;;;;13.20;99.90;;;;;;5044502;28;19950;-76
2022/05/10 03:39:35;;;;;;;;;;;13.20;99.90;;;;;;5043614;28;19929;-76
2022/05/10 03:42:03;;;;;;;;;;;13.20;99.90;;;;;;5043101;28;19928;-77
2022/05/10 03:44:30;;;;;;;;;;;13.20;99.90;;;;;;5012025;28;19925;-77
2022/05/10 03:46:57;;;;;;;;;;;13.20;99.90;;;;;;5028390;28;19940;-77
2022/05/10 03:49:23;;;;;;;;;;;13.20;99.90;;;;;;5060546;28;19925;-77
2022/05/10 03:51:49;;;;;;;;;;;13.20;99.90;;;;;;5046008;28;19959;-77
2022/05/10 03:54:14;;;;;;;;;;;13.20;99.90;;;;;;5045828;28;19975;-76
2022/05/10 03:56:40;;;;;;;;;;;13.20;99.90;;;;;;5029083;28;20411;-76
2022/05/10 03:59:07;;;;;;;;;;;13.20;99.90;;;;;;5029284;28;19936;-77
2022/05/10 04:01:32;;;;;;;;;;;13.20;99.90;;;;;;5023574;28;19924;-76
2022/05/10 04:03:58;;;;;;;;;;;13.20;99.90;;;;;;5029168;28;19943;-76
2022/05/10 04:06:27;;;;;;;;;;;13.20;99.90;;;;;;5027739;28;19925;-76
2022/05/10 04:08:54;;;;;;;;;;;13.20;99.90;;;;;;5044593;28;19970;-76
2022/05/10 04:11:19;;;;;;;;;;;13.20;99.90;;;;;;5041477;28;19928;-76
2022/05/10 04:13:45;;;;;;;;;;;13.10;99.90;;;;;;5044490;28;20375;-76
2022/05/10 04:16:12;;;;;;;;;;;13.10;99.90;;;;;;5028434;28;20658;-76
2022/05/10 04:18:38;;;;;;;;;;;13.10;99.90;;;;;;5034764;28;20021;-76
2022/05/10 04:21:03;;;;;;;;;;;13.10;99.90;;;;;;5011209;28;19963;-77
2022/05/10 04:23:29;;;;;;;;;;;13.10;99.90;;;;;;5044100;28;19928;-76
2022/05/10 04:26:00;;;;;;;;;;;13.10;99.90;;;;;;5027183;28;20056;-76
2022/05/10 04:28:26;;;;;;;;;;;13.00;99.90;;;;;;5044737;28;20275;-76
2022/05/10 04:30:52;;;;;;;;;;;13.00;99.90;;;;;;5042805;28;19925;-76
2022/05/10 04:33:18;;;;;;;;;;;13.10;99.90;;;;;;5041310;28;19952;-77
2022/05/10 04:35:44;;;;;;;;;;;13.00;99.90;;;;;;5026947;28;20375;-76
2022/05/10 04:38:10;;;;;;;;;;;13.00;99.90;;;;;;5044292;28;19928;-76
2022/05/10 04:43:20;;;;;;;;;;;13.10;99.90;;;;;;5044258;28;20383;-76
2022/05/10 04:45:48;;;;;;;;;;;13.10;99.90;;;;;;5027741;28;19932;-76
2022/05/10 04:48:13;;;;;;;;;;;13.20;99.90;;;;;;5042416;28;19929;-76
2022/05/10 04:50:40;;;;;;;;;;;13.20;99.90;;;;;;5026894;28;19928;-76
2022/05/10 04:53:06;;;;;;;;;;;13.30;99.90;;;;;;5030797;28;20413;-76
2022/05/10 04:55:31;;;;;;;;;;;13.30;99.90;;;;;;5032128;28;19920;-76
2022/05/10 04:57:57;;;;;;;;;;;13.30;99.90;;;;;;5030857;28;19921;-76
2022/05/10 05:00:23;;;;;;;;;;;13.30;99.90;;;;;;5047300;28;20019;-76
2022/05/10 05:02:48;;;;;;;;;;;13.40;99.90;;;;;;5044432;28;19974;-76
2022/05/10 05:05:14;;;;;;;;;;;13.40;99.90;;;;;;5031184;28;20011;-76
2022/05/10 05:07:41;;;;;;;;;;;13.40;99.90;;;;;;5030499;28;19928;-76
2022/05/10 05:10:07;;;;;;;;;;;13.40;99.90;;;;;;5008614;28;19933;-76
2022/05/10 05:12:33;;;;;;;;;;;13.50;99.90;;;;;;5029675;28;19966;-76
2022/05/10 05:14:58;;;;;;;;;;;13.50;99.90;;;;;;5041587;28;20011;-76
2022/05/10 05:17:24;;;;;;;;;;;13.60;99.90;;;;;;5032611;28;20394;-76
2022/05/10 05:19:49;;;;;;;;;;;13.50;99.90;;;;;;5025175;28;20011;-77
2022/05/10 05:22:15;;;;;;;;;;;13.60;99.90;;;;;;5015952;28;19928;-76
2022/05/10 05:24:42;;;;;;;;;;;13.70;99.90;;;;;;5012178;28;20596;-77
2022/05/10 05:27:08;;;;;;;;;;;13.70;99.90;;;;;;5031351;28;20309;-77
2022/05/10 05:29:33;;;;;;;;;;;13.80;99.90;;;;;;5046315;28;19920;-76
2022/05/10 05:32:00;;;;;;;;;;;13.90;99.90;;;;;;5025109;28;20456;-76
2022/05/10 05:34:25;;;;;;;;;;;14.00;99.90;;;;;;5031109;28;20386;-77
2022/05/10 05:39:35;;;;;;;;;;;14.10;99.90;;;;;;5045859;28;19925;-78
2022/05/10 05:42:02;;;;;;;;;;;14.20;99.90;;;;;;5048436;28;20011;-77
2022/05/10 05:44:28;;;;;;;;;;;14.30;99.90;;;;;;5031744;28;20623;-78
2022/05/10 05:46:53;;;;;;;;;;;14.30;99.90;;;;;;5030386;28;19979;-77
2022/05/10 05:49:19;;;;;;;;;;;14.40;99.90;;;;;;5022061;28;20389;-77
2022/05/10 05:51:44;;;;;;;;;;;14.50;99.90;;;;;;5047680;28;19921;-77
2022/05/10 05:54:10;;;;;;;;;;;14.60;99.90;;;;;;5031536;28;20413;-77
2022/05/10 05:56:35;;;;;;;;;;;14.70;99.90;;;;;;5044318;28;19921;-80
2022/05/10 05:59:02;;;;;;;;;;;14.70;99.90;;;;;;5046200;28;19964;-77
2022/05/10 06:01:28;;;;;;;;;;;14.80;99.90;;;;;;5031303;28;19924;-77
2022/05/10 06:03:55;;;;;;;;;;;14.90;99.90;;;;;;5033360;28;19920;-76
2022/05/10 06:06:21;;;;;;;;;;;15.00;99.90;;;;;;5044310;28;20615;-76
2022/05/10 06:08:47;;;;;;;;;;;15.10;99.90;;;;;;5030787;28;19979;-76
2022/05/10 06:11:13;;;;;;;;;;;15.20;99.90;;;;;;5030571;28;19920;-77
2022/05/10 06:13:39;;;;;;;;;;;15.30;99.90;;;;;;5031355;28;19920;-77
2022/05/10 06:16:07;;;;;;;;;;;15.40;99.90;;;;;;5031667;28;20003;-77
2022/05/10 06:18:32;;;;;;;;;;;15.50;99.90;;;;;;5033410;28;19929;-77
2022/05/10 06:20:58;;;;;;;;;;;15.60;99.90;;;;;;5041422;28;19944;-76
2022/05/10 06:23:23;;;;;;;;;;;15.80;99.90;;;;;;5031086;28;19979;-77
2022/05/10 06:25:49;;;;;;;;;;;15.90;99.90;;;;;;5029741;28;20020;-76
2022/05/10 06:28:15;;;;;;;;;;;16.00;99.90;;;;;;5028138;28;19983;-77
2022/05/10 06:30:42;;;;;;;;;;;16.20;99.90;;;;;;5045358;28;20350;-77
2022/05/10 06:33:09;;;;;;;;;;;16.30;99.90;;;;;;5044715;28;19925;-76
2022/05/10 06:35:34;;;;;;;;;;;16.50;99.90;;;;;;5041310;28;20314;-75
2022/05/10 06:40:48;;;;;;;;;;;16.90;99.90;;;;;;5046053;28;19921;-77
2022/05/10 06:43:15;;;;;;;;;;;17.00;99.90;;;;;;5028866;28;19982;-75
2022/05/10 06:45:43;;;;;;;;;;;17.20;99.90;;;;;;5006572;28;20067;-76
2022/05/10 06:48:10;;;;;;;;;;;17.30;99.90;;;;;;5027386;28;20012;-77
2022/05/10 06:50:36;;;;;;;;;;;17.40;99.90;;;;;;5027258;28;19929;-76
2022/05/10 06:53:02;;;;;;;;;;;17.50;99.90;;;;;;5010418;28;19931;-75
2022/05/10 06:55:28;;;;;;;;;;;17.50;99.90;;;;;;5011437;28;20343;-76
2022/05/10 06:57:54;;;;;;;;;;;17.60;99.90;;;;;;5040573;28;19931;-76
2022/05/10 07:00:20;;;;;;;;;;;17.60;99.90;;;;;;5040870;28;20287;-74
2022/05/10 07:02:46;;;;;;;;;;;17.70;99.90;;;;;;5042033;28;19924;-77
2022/05/10 07:05:13;;;;;;;;;;;17.80;99.90;;;;;;5043726;28;20390;-76
2022/05/10 07:07:39;;;;;;;;;;;17.90;99.90;;;;;;5046793;28;19980;-77
2022/05/10 07:10:08;;;;;;;;;;;18.10;99.90;;;;;;5021406;28;19972;-76
2022/05/10 07:12:34;;;;;;;;;;;18.20;99.90;;;;;;5029185;28;19920;-75
2022/05/10 07:14:59;;;;;;;;;;;18.30;99.90;;;;;;5044468;28;20022;-76
2022/05/10 07:17:26;;;;;;;;;;;18.40;99.90;;;;;;5042303;28;20409;-78
2022/05/10 07:19:51;;;;;;;;;;;18.50;99.90;;;;;;5026287;28;19931;-76
2022/05/10 07:22:18;;;;;;;;;;;18.70;99.70;;;;;;5050001;28;19928;-80
2022/05/10 07:24:44;;;;;;;;;;;18.80;98.70;;;;;;5011529;28;19929;-77
2022/05/10 07:27:09;;;;;;;;;;;19.00;98.20;;;;;;5037682;28;21151;-75
2022/05/10 07:29:35;;;;;;;;;;;19.20;98.10;;;;;;5010823;28;19932;-76
2022/05/10 07:32:01;;;;;;;;;;;19.30;98.00;;;;;;5044801;28;19951;-76
2022/05/10 07:34:27;;;;;;;;;;;19.40;97.20;;;;;;5027958;28;19928;-77
2022/05/10 07:36:52;;;;;;;;;;;19.60;96.90;;;;;;5042185;28;19935;-78
2022/05/10 07:39:21;;;;;;;;;;;19.70;96.90;;;;;;5027307;28;20004;-77
2022/05/10 07:41:48;;;;;;;;;;;19.70;96.20;;;;;;5028751;28;19925;-77
2022/05/10 07:44:13;;;;;;;;;;;19.90;96.30;;;;;;5029984;28;19994;-77
2022/05/10 07:46:39;;;;;;;;;;;19.90;95.60;;;;;;5044965;28;19933;-77
2022/05/10 07:49:05;;;;;;;;;;;20.00;94.80;;;;;;5032587;28;19932;-76
2022/05/10 07:51:30;;;;;;;;;;;20.10;94.40;;;;;;5034362;28;19927;-79
2022/05/10 07:53:56;;;;;;;;;;;20.20;94.20;;;;;;5050102;28;19920;-77
2022/05/10 07:56:26;;;;;;;;;;;20.30;94.50;;;;;;5047257;28;19927;-76
2022/05/10 07:58:51;;;;;;;;;;;20.50;94.70;;;;;;5028916;28;19940;-75
2022/05/10 08:01:17;;;;;;;;;;;20.60;94.60;;;;;;5046345;28;19921;-77
2022/05/10 08:03:43;;;;;;;;;;;20.80;94.10;;;;;;5028145;28;19929;-79
2022/05/10 08:06:08;;;;;;;;;;;20.90;94.10;;;;;;5029467;28;20030;-78
2022/05/10 08:08:34;;;;;;;;;;;21.00;93.20;;;;;;5030044;28;20290;-78
2022/05/10 08:11:00;;;;;;;;;;;21.20;93.20;;;;;;5046352;28;19924;-75
2022/05/10 08:13:28;;;;;;;;;;;21.40;92.80;;;;;;5045181;28;19961;-76
2022/05/10 08:15:54;;;;;;;;;;;21.60;93.00;;;;;;5029386;28;19931;-80
2022/05/10 08:18:21;;;;;;;;;;;21.80;92.90;;;;;;5029330;28;19935;-78
2022/05/10 08:20:47;;;;;;;;;;;21.90;91.60;;;;;;5062223;28;19944;-75
2022/05/10 08:23:15;;;;;;;;;;;22.00;91.50;;;;;;5038233;28;19921;-76
2022/05/10 08:25:41;;;;;;;;;;;22.00;91.30;;;;;;5042198;28;19964;-78
2022/05/10 08:28:13;;;;;;;;;;;22.10;91.20;;;;;;5048333;28;19933;-75
2022/05/10 08:30:40;;;;;;;;;;;22.20;90.90;;;;;;5048260;28;19920;-76
2022/05/10 08:33:06;;;;;;;;;;;22.10;90.60;;;;;;5049152;28;19929;-78
2022/05/10 08:35:32;;;;;;;;;;;22.10;90.60;;;;;;5049335;28;19928;-78
2022/05/10 08:37:57;;;;;;;;;;;21.90;89.50;;;;;;5034177;28;19947;-76
2022/05/10 08:40:25;;;;;;;;;;;21.80;90.40;;;;;;5033271;28;20359;-77
2022/05/10 08:42:52;;;;;;;;;;;21.60;89.60;;;;;;5047863;28;19929;-77
2022/05/10 08:45:21;;;;;;;;;;;21.50;90.00;;;;;;5050169;28;19933;-77
2022/05/10 08:47:48;;;;;;;;;;;21.40;90.40;;;;;;5049429;28;19921;-76
2022/05/10 08:50:14;;;;;;;;;;;21.40;90.60;;;;;;5054059;28;19947;-78
2022/05/10 08:52:41;;;;;;;;;;;21.40;90.70;;;;;;5037757;28;19921;-76
2022/05/10 08:55:08;;;;;;;;;;;21.50;90.80;;;;;;5053253;28;20302;-76
2022/05/10 08:57:45;;;;;;;;;;;21.50;91.00;;;;;;5052843;28;19970;-76
2022/05/10 09:00:12;;;;;;;;;;;21.50;91.10;;;;;;5053972;28;19967;-77
2022/05/10 09:02:40;;;;;;;;;;;21.60;91.00;;;;;;5053639;28;19928;-77
2022/05/10 09:05:09;;;;;;;;;;;21.60;90.90;;;;;;5050363;28;19974;-76
2022/05/10 09:07:37;;;;;;;;;;;21.70;91.00;;;;;;5020953;28;20412;-76
2022/05/10 09:10:04;;;;;;;;;;;21.70;90.80;;;;;;5019234;28;19982;-77
2022/05/10 09:12:36;;;;;;;;;;;21.70;91.30;;;;;;5037134;28;19921;-77
2022/05/10 09:15:04;;;;;;;;;;;21.80;91.00;;;;;;5053199;28;19921;-77
2022/05/10 09:17:31;;;;;;;;;;;21.80;90.90;;;;;;5037637;28;20031;-77
2022/05/10 09:19:57;;;;;;;;;;;21.80;90.80;;;;;;5032637;28;19953;-77
2022/05/10 09:22:28;;;;;;;;;;;21.80;91.10;;;;;;5043696;28;19924;-78
2022/05/10 09:24:56;;;;;;;;;;;21.80;91.10;;;;;;5045172;28;19955;-75
2022/05/10 09:27:25;;;;;;;;;;;21.80;91.30;;;;;;5029865;28;19931;-78
2022/05/10 09:29:52;;;;;;;;;;;21.90;91.40;;;;;;5031844;28;20007;-77
2022/05/10 09:35:09;;;;;;;;;;;21.90;91.20;;;;;;5045878;28;19943;-76
2022/05/10 09:37:37;;;;;;;;;;;21.90;91.10;;;;;;5030671;28;19920;-75
2022/05/10 09:40:09;;;;;;;;;;;21.90;91.20;;;;;;5049261;28;20394;-79
2022/05/10 09:42:36;;;;;;;;;;;21.90;91.40;;;;;;5046196;28;20457;-77
2022/05/10 09:45:04;;;;;;;;;;;22.00;91.30;;;;;;5048597;28;19921;-76
2022/05/10 09:47:30;;;;;;;;;;;22.10;91.40;;;;;;5032518;28;19932;-80
2022/05/10 09:50:09;;;;;;;;;;;22.20;91.70;;;;;;5050183;28;19931;-76
2022/05/10 09:52:36;;;;;;;;;;;22.30;91.30;;;;;;5013786;28;19928;-76
2022/05/10 09:55:05;;;;;;;;;;;22.60;90.80;;;;;;5032674;28;19929;-77
2022/05/10 09:57:32;;;;;;;;;;;22.90;90.10;;;;;;5033757;28;19925;-77
2022/05/10 09:59:58;;;;;;;;;;;23.00;90.00;;;;;;5052014;28;19920;-78
2022/05/10 10:02:26;;;;;;;;;;;23.00;90.00;;;;;;5053010;28;19921;-78
2022/05/10 10:04:51;;;;;;;;;;;23.10;90.20;;;;;;5052192;28;20002;-76
2022/05/10 10:07:18;;;;;;;;;;;23.00;89.20;;;;;;5035947;28;20052;-77
2022/05/10 10:09:46;;;;;;;;;;;23.00;89.20;;;;;;5035507;28;20434;-77
2022/05/10 10:12:14;;;;;;;;;;;23.00;89.90;;;;;;5052689;28;20616;-75
2022/05/10 10:14:41;;;;;;;;;;;23.10;89.10;;;;;;5052116;28;20390;-74
2022/05/10 10:17:16;;;;;;;;;;;23.40;89.90;;;;;;5050933;28;19928;-75
2022/05/10 10:19:44;;;;;;;;;;;23.80;90.00;;;;;;5047083;28;20002;-78
2022/05/10 10:22:12;;;;;;;;;;;24.10;90.00;;;;;;5051055;28;19924;-77
2022/05/10 10:24:46;;;;;;;;;;;24.30;88.30;;;;;;5024991;28;19956;-77
2022/05/10 10:27:17;;;;;;;;;;;24.30;86.20;;;;;;5031219;28;20061;-77
2022/05/10 10:29:45;;;;;;;;;;;24.20;84.90;;;;;;5015230;28;19932;-79
2022/05/10 10:32:13;;;;;;;;;;;24.10;85.80;;;;;;5029866;28;19933;-78
2022/05/10 10:34:42;;;;;;;;;;;24.10;86.70;;;;;;5048598;28;19921;-80
2022/05/10 10:37:10;;;;;;;;;;;24.00;86.00;;;;;;5043318;28;19921;-79
2022/05/10 10:39:39;;;;;;;;;;;23.90;85.80;;;;;;5014498;28;19929;-79
2022/05/10 10:42:10;;;;;;;;;;;24.00;85.20;;;;;;5043405;28;19927;-78
2022/05/10 10:44:39;;;;;;;;;;;24.00;87.30;;;;;;5046926;28;19925;-77
2022/05/10 10:47:11;;;;;;;;;;;24.10;87.00;;;;;;5032318;28;19931;-76
2022/05/10 10:49:41;;;;;;;;;;;24.20;86.90;;;;;;5049404;28;20405;-78
2022/05/10 10:52:07;;;;;;;;;;;24.20;85.90;;;;;;5052993;28;19924;-77
2022/05/10 10:54:33;;;;;;;;;;;24.00;85.60;;;;;;5019885;28;19921;-78
2022/05/10 10:57:05;;;;;;;;;;;24.00;86.00;;;;;;5035550;28;19920;-78
2022/05/10 10:59:48;;;;;;;;;;;24.00;87.00;;;;;;5051504;28;19971;-77
2022/05/10 11:02:21;;;;;;;;;;;24.20;87.30;;;;;;5051087;28;19972;-79
2022/05/10 11:05:09;;;;;;;;;;;24.50;87.30;;;;;;5035815;28;20004;-77
2022/05/10 11:07:43;;;;;;;;;;;24.70;86.20;;;;;;5034928;28;19932;-78
2022/05/10 11:10:10;;;;;;;;;;;25.00;85.80;;;;;;5053383;28;19928;-78
2022/05/10 11:12:44;;;;;;;;;;;25.40;85.00;;;;;;5034433;28;19921;-79
2022/05/10 11:15:18;;;;;;;;;;;25.40;84.90;;;;;;5036288;28;19936;-81
2022/05/10 11:17:55;;;;;;;;;;;25.30;82.50;;;;;;5051669;28;19929;-78
2022/05/10 11:20:24;;;;;;;;;;;25.00;82.60;;;;;;5046669;28;19929;-77
2022/05/10 11:22:53;;;;;;;;;;;24.80;83.10;;;;;;5047207;28;19921;-76
2022/05/10 11:25:26;;;;;;;;;;;24.50;82.40;;;;;;5041066;28;19925;-79
2022/05/10 11:28:04;;;;;;;;;;;24.30;82.70;;;;;;5029525;28;20406;-77
2022/05/10 11:30:34;;;;;;;;;;;24.10;82.40;;;;;;5031460;28;20313;-75
2022/05/10 11:33:06;;;;;;;;;;;23.90;84.00;;;;;;5026801;28;19987;-78
2022/05/10 11:35:46;;;;;;;;;;;23.80;84.60;;;;;;5028979;28;19948;-77
2022/05/10 11:38:16;;;;;;;;;;;23.60;85.20;;;;;;5031321;28;19920;-77
2022/05/10 11:40:51;;;;;;;;;;;23.50;85.10;;;;;;5049738;28;19921;-79
2022/05/10 11:43:28;;;;;;;;;;;23.50;82.70;;;;;;5024809;28;19925;-75
2022/05/10 11:46:03;;;;;;;;;;;23.80;83.70;;;;;;5030117;28;19972;-78
2022/05/10 11:48:36;;;;;;;;;;;24.30;83.90;;;;;;5048706;28;19925;-78
2022/05/10 11:54:31;;;;;;;;;;;25.30;80.50;;;;;;5004703;28;19928;-79
2022/05/10 11:56:58;;;;;;;;;;;25.50;78.20;;;;;;5028872;28;20412;-77
2022/05/10 11:59:25;;;;;;;;;;;25.60;77.60;;;;;;5060837;28;20000;-78
2022/05/10 12:01:53;;;;;;;;;;;25.70;77.10;;;;;;5048730;28;19971;-76
2022/05/10 12:04:33;;;;;;;;;;;25.70;76.60;;;;;;5017033;28;20008;-79
2022/05/10 12:07:24;;;;;;;;;;;25.70;74.00;;;;;;5051414;28;20469;-78
2022/05/10 12:09:55;;;;;;;;;;;25.60;75.20;;;;;;5042371;28;19971;-78
2022/05/10 12:12:54;;;;;;;;;;;25.40;75.40;;;;;;5047766;28;20345;-79
2022/05/10 12:21:19;;;;;;;;;;;25.90;75.10;;;;;;5051923;28;19925;-78
2022/05/10 12:24:06;;;;;;;;;;;25.90;74.80;;;;;;5036230;28;19928;-77
2022/05/10 12:26:36;;;;;;;;;;;25.60;74.20;;;;;;5041847;28;20276;-77
2022/05/10 12:29:02;;;;;;;;;;;25.30;73.30;;;;;;5047437;28;20295;-78
2022/05/10 12:31:49;;;;;;;;;;;25.10;75.40;;;;;;5052370;28;19921;-77
2022/05/10 12:34:35;;;;;;;;;;;25.00;75.60;;;;;;5048909;28;19921;-75
2022/05/10 12:37:22;;;;;;;;;;;25.10;77.00;;;;;;5051321;28;20002;-76
2022/05/10 12:39:52;;;;;;;;;;;25.20;75.50;;;;;;5051081;28;19927;-79
2022/05/10 12:42:21;;;;;;;;;;;25.10;76.20;;;;;;5034311;28;19933;-78
2022/05/10 12:45:04;;;;;;;;;;;25.00;76.40;;;;;;5048535;28;19978;-77
2022/05/10 12:47:50;;;;;;;;;;;25.20;78.00;;;;;;5048493;28;19936;-77
2022/05/10 12:50:21;;;;;;;;;;;25.70;76.50;;;;;;5050631;28;19948;-77
2022/05/10 12:52:50;;;;;;;;;;;25.80;75.90;;;;;;5069724;28;19924;-76
2022/05/10 12:55:19;;;;;;;;;;;26.10;74.70;;;;;;5054006;28;19928;-77
2022/05/10 12:57:46;;;;;;;;;;;26.50;73.60;;;;;;5039540;28;19971;-76
2022/05/10 13:00:13;;;;;;;;;;;26.50;71.90;;;;;;5054383;28;19928;-79
2022/05/10 13:02:42;;;;;;;;;;;26.40;70.60;;;;;;5056340;28;19974;-78
2022/05/10 13:05:13;;;;;;;;;;;26.10;71.30;;;;;;5055175;28;19928;-78
2022/05/10 13:07:56;;;;;;;;;;;25.70;72.40;;;;;;5054895;28;19924;-76
2022/05/10 13:10:23;;;;;;;;;;;25.60;73.60;;;;;;5033306;28;20375;-77
2022/05/10 13:12:51;;;;;;;;;;;25.30;74.00;;;;;;5038679;28;19959;-78
2022/05/10 13:15:18;;;;;;;;;;;25.20;74.00;;;;;;5048051;28;19983;-79
2022/05/10 13:17:45;;;;;;;;;;;25.00;75.10;;;;;;5038632;28;19955;-79
2022/05/10 13:20:12;;;;;;;;;;;24.80;75.00;;;;;;5036985;28;19942;-76
2022/05/10 13:22:38;;;;;;;;;;;24.60;74.80;;;;;;5050103;28;19921;-80
2022/05/10 13:25:06;;;;;;;;;;;24.40;75.10;;;;;;5048589;28;19927;-79
2022/05/10 13:27:34;;;;;;;;;;;24.40;76.70;;;;;;5043441;28;19929;-79
2022/05/10 13:30:03;;;;;;;;;;;24.40;77.70;;;;;;5033003;28;19951;-78
2022/05/10 13:32:33;;;;;;;;;;;24.50;77.00;;;;;;5051600;28;19975;-77
2022/05/10 13:35:02;;;;;;;;;;;24.40;75.70;;;;;;5049071;28;20365;-76
2022/05/10 13:37:29;;;;;;;;;;;24.20;76.40;;;;;;5051779;28;19921;-77
2022/05/10 13:39:59;;;;;;;;;;;24.30;77.40;;;;;;5051601;28;19921;-78
2022/05/10 13:42:26;;;;;;;;;;;24.20;77.40;;;;;;5050370;28;20182;-77
2022/05/10 13:44:53;;;;;;;;;;;24.10;77.50;;;;;;5047626;28;19932;-76
2022/05/10 13:47:26;;;;;;;;;;;24.20;77.60;;;;;;5049998;28;19936;-77
2022/05/10 13:49:51;;;;;;;;;;;24.20;77.60;;;;;;5051617;28;19920;-76
2022/05/10 13:52:24;;;;;;;;;;;24.30;77.70;;;;;;5052351;28;20007;-77
2022/05/10 13:54:53;;;;;;;;;;;24.40;78.90;;;;;;5050471;28;19956;-77
2022/05/10 13:57:20;;;;;;;;;;;24.40;78.60;;;;;;5052932;28;19928;-79
2022/05/10 13:59:46;;;;;;;;;;;24.50;78.90;;;;;;5049952;28;19935;-76
2022/05/10 14:02:14;;;;;;;;;;;24.50;79.50;;;;;;5051400;28;19925;-78
2022/05/10 14:04:40;;;;;;;;;;;24.30;77.00;;;;;;5050820;28;19936;-78
2022/05/10 14:07:10;;;;;;;;;;;24.10;77.00;;;;;;5050217;28;19937;-77
2022/05/10 14:09:40;;;;;;;;;;;23.90;75.00;;;;;;5049941;28;20015;-80
2022/05/10 14:12:09;;;;;;;;;;;23.60;74.90;;;;;;5048690;28;20008;-77
2022/05/10 14:14:34;;;;;;;;;;;23.50;75.20;;;;;;5048821;28;20429;-76
2022/05/10 14:17:00;;;;;;;;;;;23.40;74.80;;;;;;5057314;28;19921;-76
2022/05/10 14:19:31;;;;;;;;;;;23.20;75.50;;;;;;5057287;28;19928;-78
2022/05/10 14:22:04;;;;;;;;;;;23.10;75.20;;;;;;5055941;28;19935;-77
2022/05/10 14:24:31;;;;;;;;;;;23.00;75.20;;;;;;5046737;28;19972;-79
2022/05/10 14:27:05;;;;;;;;;;;22.90;76.10;;;;;;5053397;28;20023;-77
2022/05/10 14:29:34;;;;;;;;;;;22.90;76.40;;;;;;5023290;28;20000;-79
2022/05/10 14:32:02;;;;;;;;;;;22.90;76.70;;;;;;5054784;28;19982;-78
2022/05/10 14:34:50;;;;;;;;;;;22.80;74.60;;;;;;5053368;28;19920;-76
2022/05/10 14:37:17;;;;;;;;;;;22.70;76.40;;;;;;5054368;28;19928;-78
2022/05/10 14:39:42;;;;;;;;;;;22.60;76.30;;;;;;5048096;28;19927;-79
2022/05/10 14:42:20;;;;;;;;;;;22.50;76.80;;;;;;5050638;28;19920;-78
2022/05/10 14:44:46;;;;;;;;;;;22.40;76.80;;;;;;5052818;28;19925;-77
2022/05/10 14:47:17;;;;;;;;;;;22.30;74.10;;;;;;5052644;28;19932;-78